createdAt,value
2023-04-10T00:00:39.543Z,97010.91
2023-04-10T00:03:07.970Z,97013.44
2023-04-10T00:05:36.519Z,97011.72
2023-04-10T00:08:04.869Z,97020.22
2023-04-10T00:10:34.567Z,97013.38
2023-04-10T00:13:03.666Z,97018.97
2023-04-10T00:15:31.978Z,97024.09
2023-04-10T00:18:00.317Z,97021.94
2023-04-10T00:20:28.672Z,97023.72
2023-04-10T00:22:56.924Z,97023.34
2023-04-10T00:25:26.557Z,97008.41
2023-04-10T00:27:56.806Z,97015.13
2023-04-10T00:30:25.474Z,97003.81
2023-04-10T00:32:53.762Z,97004.38
2023-04-10T00:35:21.995Z,97010.31
2023-04-10T00:37:50.544Z,97003.72
2023-04-10T00:40:18.827Z,97000.59
2023-04-10T00:42:47.131Z,96991.53
2023-04-10T00:45:16.892Z,96989.44
2023-04-10T00:47:45.266Z,96994.31
2023-04-10T00:50:13.613Z,96989.91
2023-04-10T00:52:41.978Z,96985.56
2023-04-10T00:55:11.049Z,96983.03
2023-04-10T00:57:39.619Z,96984.28
2023-04-10T01:00:09.374Z,96990.19
2023-04-10T01:02:39.332Z,96983.50
2023-04-10T01:05:07.922Z,96991.63
2023-04-10T01:07:45.371Z,96988.41
2023-04-10T01:10:19.281Z,96984.66
2023-04-10T01:12:56.782Z,96991.47
2023-04-10T01:15:27.055Z,96995.34
2023-04-10T01:17:59.375Z,96984.84
2023-04-10T01:20:30.006Z,96986.09
2023-04-10T01:23:09.994Z,96987.50
2023-04-10T01:25:42.622Z,96994.00
2023-04-10T01:28:40.448Z,96994.13
2023-04-10T01:31:11.030Z,96993.47
2023-04-10T01:33:40.279Z,96983.91
2023-04-10T01:36:10.040Z,96989.41
2023-04-10T01:38:41.485Z,96983.00
2023-04-10T01:41:09.823Z,96983.28
2023-04-10T01:43:40.211Z,96989.84
2023-04-10T01:46:08.725Z,96987.03
2023-04-10T01:48:37.295Z,96978.03
2023-04-10T01:51:08.547Z,96980.25
2023-04-10T01:53:38.368Z,96970.34
2023-04-10T01:56:08.990Z,96972.00
2023-04-10T01:58:36.987Z,96972.56
2023-04-10T02:01:07.968Z,96969.19
2023-04-10T02:03:36.435Z,96973.69
2023-04-10T02:06:12.739Z,96968.41
2023-04-10T02:08:43.635Z,96961.13
2023-04-10T02:11:16.830Z,96955.44
2023-04-10T02:13:45.336Z,96962.88
2023-04-10T02:16:17.373Z,96961.06
2023-04-10T02:18:46.594Z,96966.56
2023-04-10T02:21:14.953Z,96969.41
2023-04-10T02:23:43.265Z,96965.19
2023-04-10T02:26:11.611Z,96968.56
2023-04-10T02:28:40.381Z,96966.72
2023-04-10T02:31:08.952Z,96969.28
2023-04-10T02:33:38.663Z,96971.19
2023-04-10T02:36:07.885Z,96969.00
2023-04-10T02:38:36.217Z,96968.63
2023-04-10T02:41:04.763Z,96958.47
2023-04-10T02:43:33.057Z,96962.59
2023-04-10T02:46:01.371Z,96965.09
2023-04-10T02:48:29.627Z,96970.47
2023-04-10T02:50:59.974Z,96967.69
2023-04-10T02:53:28.257Z,96968.34
2023-04-10T02:55:56.529Z,96972.53
2023-04-10T02:58:24.827Z,96973.63
2023-04-10T03:00:53.192Z,96970.78
2023-04-10T03:03:21.645Z,96978.28
2023-04-10T03:05:50.059Z,96976.56
2023-04-10T03:08:19.811Z,96971.41
2023-04-10T03:10:49.273Z,96981.41
2023-04-10T03:13:18.177Z,96978.91
2023-04-10T03:15:46.597Z,96976.28
2023-04-10T03:18:14.867Z,96974.25
2023-04-10T03:20:45.033Z,96971.56
2023-04-10T03:23:13.616Z,96958.19
2023-04-10T03:25:43.437Z,96963.19
2023-04-10T03:28:11.702Z,96966.66
2023-04-10T03:30:40.046Z,96969.75
2023-04-10T03:33:08.310Z,96965.84
2023-04-10T03:35:36.571Z,96970.53
2023-04-10T03:38:04.868Z,96957.41
2023-04-10T03:40:34.286Z,96963.31
2023-04-10T03:43:04.161Z,96962.22
2023-04-10T03:45:32.426Z,96958.44
2023-04-10T03:48:00.731Z,96954.06
2023-04-10T03:50:29.189Z,96956.47
2023-04-10T03:52:57.797Z,96958.78
2023-04-10T03:55:26.149Z,96957.13
2023-04-10T03:57:54.560Z,96963.69
2023-04-10T04:00:26.098Z,96968.97
2023-04-10T04:02:55.307Z,96961.06
2023-04-10T04:05:24.250Z,96968.00
2023-04-10T04:07:52.491Z,96958.78
2023-04-10T04:10:20.751Z,96962.66
2023-04-10T04:12:49.026Z,96961.00
2023-04-10T04:15:17.413Z,96971.09
2023-04-10T04:17:47.949Z,96970.84
2023-04-10T04:20:16.049Z,96959.00
2023-04-10T04:22:44.194Z,96963.66
2023-04-10T04:25:12.445Z,96967.63
2023-04-10T04:27:41.702Z,96968.59
2023-04-10T04:30:11.519Z,96969.03
2023-04-10T04:32:39.904Z,96967.28
2023-04-10T04:35:10.599Z,96973.13
2023-04-10T04:37:38.698Z,96969.09
2023-04-10T04:40:07.917Z,96971.66
2023-04-10T04:42:37.359Z,96979.94
2023-04-10T04:45:06.596Z,96986.50
2023-04-10T04:47:34.946Z,96988.50
2023-04-10T04:50:03.228Z,96986.41
2023-04-10T04:52:35.331Z,96988.69
2023-04-10T04:55:03.607Z,96986.66
2023-04-10T04:57:31.902Z,96994.03
2023-04-10T05:00:00.307Z,96985.94
2023-04-10T05:02:28.656Z,96989.06
2023-04-10T05:04:57.023Z,96991.81
2023-04-10T05:07:25.394Z,96985.69
2023-04-10T05:09:55.021Z,96986.28
2023-04-10T05:12:23.284Z,96980.66
2023-04-10T05:14:51.574Z,96982.97
2023-04-10T05:17:19.885Z,96981.38
2023-04-10T05:19:48.116Z,96985.59
2023-04-10T05:22:18.087Z,96992.25
2023-04-10T05:24:47.094Z,96990.69
2023-04-10T05:27:18.903Z,96994.13
2023-04-10T05:29:47.196Z,96987.47
2023-04-10T05:32:15.534Z,96984.84
2023-04-10T05:34:43.821Z,96984.00
2023-04-10T05:37:13.040Z,96991.50
2023-04-10T05:39:41.399Z,96991.50
2023-04-10T05:42:09.664Z,96996.94
2023-04-10T05:44:39.292Z,96990.88
2023-04-10T05:47:07.600Z,96986.81
2023-04-10T05:49:36.050Z,96987.94
2023-04-10T05:52:04.342Z,96992.09
2023-04-10T05:54:32.628Z,96985.78
2023-04-10T05:57:01.713Z,96986.59
2023-04-10T05:59:29.985Z,96989.69
2023-04-10T06:01:59.651Z,96982.53
2023-04-10T06:04:28.290Z,96987.44
2023-04-10T06:06:57.189Z,96993.31
2023-04-10T06:09:25.731Z,96990.19
2023-04-10T06:11:54.305Z,97001.19
2023-04-10T06:14:22.646Z,97002.31
2023-04-10T06:16:51.176Z,97002.31
2023-04-10T06:19:21.110Z,97005.78
2023-04-10T06:21:49.343Z,96997.78
2023-04-10T06:24:17.602Z,97001.19
2023-04-10T06:26:45.928Z,97002.53
2023-04-10T06:29:14.214Z,97000.72
2023-04-10T06:31:42.529Z,96994.91
2023-04-10T06:34:10.819Z,96994.00
2023-04-10T06:36:40.765Z,97001.13
2023-04-10T06:39:09.006Z,96992.94
2023-04-10T06:41:37.313Z,96992.41
2023-04-10T06:44:05.952Z,96991.06
2023-04-10T06:46:34.186Z,96985.81
2023-04-10T06:49:02.717Z,96996.31
2023-04-10T06:51:31.483Z,96989.38
2023-04-10T06:54:01.322Z,96982.25
2023-04-10T06:56:29.692Z,96989.69
2023-04-10T06:58:57.966Z,96977.25
2023-04-10T07:01:26.674Z,96971.03
2023-04-10T07:03:56.046Z,96976.94
2023-04-10T07:06:24.483Z,96977.69
2023-04-10T07:08:53.059Z,96973.41
2023-04-10T07:11:22.916Z,96974.66
2023-04-10T07:13:53.944Z,96968.69
2023-04-10T07:16:22.559Z,96974.50
2023-04-10T07:18:50.932Z,96972.38
2023-04-10T07:21:19.172Z,96972.53
2023-04-10T07:23:47.404Z,96970.75
2023-04-10T07:26:16.508Z,96975.03
2023-04-10T07:28:46.177Z,96966.84
2023-04-10T07:31:15.002Z,96968.19
2023-04-10T07:33:43.433Z,96958.69
2023-04-10T07:36:11.883Z,96968.69
2023-04-10T07:38:46.914Z,96967.03
2023-04-10T07:41:29.960Z,96967.81
2023-04-10T07:44:39.368Z,96966.59
2023-04-10T07:47:10.929Z,96958.81
2023-04-10T07:49:44.279Z,96961.94
2023-04-10T07:52:21.070Z,96969.91
2023-04-10T07:55:04.394Z,96962.53
2023-04-10T07:57:37.744Z,96959.00
2023-04-10T08:00:18.633Z,96960.78
2023-04-10T08:02:52.948Z,96959.16
2023-04-10T08:05:22.633Z,96963.53
2023-04-10T08:07:50.892Z,96954.84
2023-04-10T08:10:19.253Z,96953.91
2023-04-10T08:12:47.528Z,96956.25
2023-04-10T08:15:17.611Z,96957.97
2023-04-10T08:17:45.880Z,96960.22
2023-04-10T08:20:14.989Z,96955.69
2023-04-10T08:22:43.281Z,96957.75
2023-04-10T08:25:11.552Z,96958.88
2023-04-10T08:27:39.819Z,96954.72
2023-04-10T08:30:09.200Z,96951.31
2023-04-10T08:32:39.517Z,96947.16
2023-04-10T08:35:08.536Z,96949.16
2023-04-10T08:37:37.133Z,96942.22
2023-04-10T08:40:06.131Z,96942.63
2023-04-10T08:42:34.721Z,96952.88
2023-04-10T08:45:05.093Z,96945.91
2023-04-10T08:47:36.680Z,96941.84
2023-04-10T08:50:10.196Z,96937.59
2023-04-10T08:52:39.903Z,96939.00
2023-04-10T08:55:09.729Z,96937.34
2023-04-10T08:57:39.048Z,96941.00
2023-04-10T09:02:44.736Z,96940.75
2023-04-10T09:05:14.575Z,96940.06
2023-04-10T09:07:42.827Z,96932.81
2023-04-10T09:10:11.527Z,96931.38
2023-04-10T09:12:47.277Z,96935.34
2023-04-10T09:15:16.214Z,96932.63
2023-04-10T09:17:58.167Z,96926.25
2023-04-10T09:20:30.448Z,96934.84
2023-04-10T09:22:59.244Z,96929.28
2023-04-10T09:25:32.572Z,96910.84
2023-04-10T09:28:02.476Z,96920.41
2023-04-10T09:30:38.079Z,96915.44
2023-04-10T09:33:23.042Z,96913.78
2023-04-10T09:35:52.682Z,96906.63
2023-04-10T09:38:22.101Z,96906.38
2023-04-10T09:40:51.527Z,96912.44
2023-04-10T09:43:22.931Z,96909.59
2023-04-10T09:45:52.731Z,96891.97
2023-04-10T09:48:21.867Z,96888.28
2023-04-10T09:50:50.155Z,96891.94
2023-04-10T09:53:21.835Z,96892.31
2023-04-10T09:55:50.841Z,96879.84
2023-04-10T09:58:19.203Z,96871.13
2023-04-10T10:00:48.635Z,96868.41
2023-04-10T10:03:18.612Z,96882.69
2023-04-10T10:05:49.198Z,96864.28
2023-04-10T10:08:19.389Z,96869.28
2023-04-10T10:10:49.284Z,96864.59
2023-04-10T10:13:19.453Z,96857.16
2023-04-10T10:15:53.138Z,96863.66
2023-04-10T10:18:26.338Z,96849.88
2023-04-10T10:20:54.693Z,96852.03
2023-04-10T10:23:24.896Z,96848.22
2023-04-10T10:25:54.077Z,96848.47
2023-04-10T10:28:22.502Z,96841.69
2023-04-10T10:30:51.534Z,96850.19
2023-04-10T10:33:20.220Z,96839.84
2023-04-10T10:35:50.085Z,96829.53
2023-04-10T10:38:19.725Z,96825.22
2023-04-10T10:40:56.174Z,96831.50
2023-04-10T10:43:28.409Z,96814.88
2023-04-10T10:46:00.613Z,96808.75
2023-04-10T10:48:29.419Z,96809.25
2023-04-10T10:50:59.350Z,96813.50
2023-04-10T10:53:35.148Z,96816.88
2023-04-10T10:56:36.106Z,96796.16
2023-04-10T10:59:04.395Z,96788.66
2023-04-10T11:01:32.723Z,96798.25
2023-04-10T11:04:01.504Z,96783.38
2023-04-10T11:06:52.089Z,96785.44
2023-04-10T11:09:48.636Z,96776.38
2023-04-10T11:12:20.411Z,96775.31
2023-04-10T11:14:58.419Z,96781.00
2023-04-10T11:17:49.820Z,96770.53
2023-04-10T11:20:18.333Z,96769.28
2023-04-10T11:23:08.400Z,96768.47
2023-04-10T11:25:55.770Z,96757.88
2023-04-10T11:28:38.476Z,96759.13
2023-04-10T11:31:18.636Z,96757.38
2023-04-10T11:33:47.377Z,96747.50
2023-04-10T11:36:17.486Z,96749.84
2023-04-10T11:38:56.358Z,96751.34
2023-04-10T11:41:28.603Z,96748.81
2023-04-10T11:43:58.872Z,96730.91
2023-04-10T11:46:27.212Z,96738.97
2023-04-10T11:48:59.269Z,96736.09
2023-04-10T11:51:28.396Z,96723.22
2023-04-10T11:54:07.512Z,96727.41
2023-04-10T11:56:36.514Z,96709.94
2023-04-10T11:59:10.812Z,96721.41
2023-04-10T12:01:42.454Z,96720.94
2023-04-10T12:04:18.012Z,96708.66
2023-04-10T12:06:46.925Z,96714.94
2023-04-10T12:09:17.172Z,96719.03
2023-04-10T12:11:52.881Z,96718.44
2023-04-10T12:14:23.200Z,96709.19
2023-04-10T12:16:52.874Z,96704.97
2023-04-10T12:19:21.641Z,96712.50
2023-04-10T12:21:50.165Z,96714.75
2023-04-10T12:24:42.527Z,96711.13
2023-04-10T12:27:16.930Z,96716.44
2023-04-10T12:29:46.850Z,96707.66
2023-04-10T12:32:15.430Z,96694.97
2023-04-10T12:34:43.804Z,96705.25
2023-04-10T12:37:13.364Z,96700.34
2023-04-10T12:39:41.646Z,96700.56
2023-04-10T12:42:13.649Z,96686.94
2023-04-10T12:44:53.893Z,96689.09
2023-04-10T12:47:22.297Z,96683.84
2023-04-10T12:50:07.246Z,96684.50
2023-04-10T12:52:35.681Z,96673.34
2023-04-10T12:55:14.685Z,96683.31
2023-04-10T12:57:43.335Z,96682.09
2023-04-10T13:00:17.084Z,96666.13
2023-04-10T13:02:45.893Z,96671.47
2023-04-10T13:05:14.615Z,96674.59
2023-04-10T13:07:43.257Z,96674.38
2023-04-10T13:10:11.726Z,96651.34
2023-04-10T13:12:41.885Z,96649.38
2023-04-10T13:15:11.518Z,96652.84
2023-04-10T13:17:41.858Z,96653.84
2023-04-10T13:20:11.379Z,96653.16
2023-04-10T13:22:39.593Z,96648.06
2023-04-10T13:25:08.327Z,96645.13
2023-04-10T13:27:36.607Z,96651.38
2023-04-10T13:30:05.470Z,96633.09
2023-04-10T13:32:33.757Z,96639.31
2023-04-10T13:35:03.432Z,96633.72
2023-04-10T13:37:31.721Z,96623.81
2023-04-10T13:39:59.988Z,96612.47
2023-04-10T13:42:28.432Z,96612.53
2023-04-10T13:44:56.702Z,96609.81
2023-04-10T13:47:25.086Z,96608.91
2023-04-10T13:49:53.340Z,96597.59
2023-04-10T13:52:23.117Z,96600.66
2023-04-10T13:54:51.334Z,96588.72
2023-04-10T13:57:19.647Z,96581.44
2023-04-10T13:59:47.883Z,96581.22
2023-04-10T14:02:16.151Z,96589.31
2023-04-10T14:04:46.185Z,96580.75
2023-04-10T14:07:14.455Z,96583.41
2023-04-10T14:09:44.057Z,96572.19
2023-04-10T14:12:12.501Z,96570.06
2023-04-10T14:14:40.788Z,96582.97
2023-04-10T14:17:09.112Z,96574.53
2023-04-10T14:19:38.393Z,96568.50
2023-04-10T14:22:06.832Z,96568.03
2023-04-10T14:24:35.109Z,96567.03
2023-04-10T14:27:04.910Z,96558.94
2023-04-10T14:29:38.796Z,96560.38
2023-04-10T14:32:08.924Z,96549.19
2023-04-10T14:34:37.287Z,96537.38
2023-04-10T14:37:05.556Z,96543.06
2023-04-10T14:39:33.974Z,96547.56
2023-04-10T14:42:03.233Z,96542.75
2023-04-10T14:44:32.917Z,96538.50
2023-04-10T14:47:01.206Z,96538.13
2023-04-10T14:49:29.461Z,96535.06
2023-04-10T14:51:57.725Z,96546.97
2023-04-10T14:54:26.109Z,96534.41
2023-04-10T14:56:54.395Z,96536.09
2023-04-10T14:59:22.610Z,96543.13
2023-04-10T15:01:54.055Z,96530.72
2023-04-10T15:04:22.628Z,96530.91
2023-04-10T15:06:51.943Z,96531.38
2023-04-10T15:09:21.894Z,96526.44
2023-04-10T15:11:50.443Z,96528.44
2023-04-10T15:14:18.781Z,96523.66
2023-04-10T15:16:47.395Z,96516.28
2023-04-10T15:19:17.148Z,96512.78
2023-04-10T15:21:45.501Z,96501.41
2023-04-10T15:24:13.755Z,96507.69
2023-04-10T15:26:44.774Z,96495.53
2023-04-10T15:29:13.258Z,96486.25
2023-04-10T15:31:42.098Z,96486.53
2023-04-10T15:34:10.581Z,96480.31
2023-04-10T15:36:40.286Z,96483.91
2023-04-10T15:39:08.634Z,96485.50
2023-04-10T15:41:36.942Z,96489.09
2023-04-10T15:44:05.419Z,96494.81
2023-04-10T15:46:34.177Z,96478.75
2023-04-10T15:49:02.492Z,96484.13
2023-04-10T15:51:30.749Z,96485.53
2023-04-10T15:54:00.427Z,96470.72
2023-04-10T15:56:28.887Z,96471.13
2023-04-10T15:58:57.153Z,96468.81
2023-04-10T16:01:25.760Z,96465.88
2023-04-10T16:03:54.376Z,96473.56
2023-04-10T16:06:25.809Z,96466.19
2023-04-10T16:08:54.453Z,96474.84
2023-04-10T16:11:24.133Z,96474.63
2023-04-10T16:13:52.400Z,96476.53
2023-04-10T16:16:20.806Z,96468.19
2023-04-10T16:18:49.060Z,96460.09
2023-04-10T16:21:17.345Z,96455.66
2023-04-10T16:23:45.624Z,96447.41
2023-04-10T16:26:13.919Z,96450.81
2023-04-10T16:28:43.483Z,96446.50
2023-04-10T16:31:12.001Z,96450.25
2023-04-10T16:33:40.319Z,96443.25
2023-04-10T16:36:09.191Z,96441.47
2023-04-10T16:38:37.487Z,96442.50
2023-04-10T16:41:06.815Z,96440.38
2023-04-10T16:43:35.827Z,96445.13
2023-04-10T16:46:06.094Z,96431.38
2023-04-10T16:48:36.192Z,96438.31
2023-04-10T16:51:06.213Z,96432.34
2023-04-10T16:53:35.923Z,96445.88
2023-04-10T16:56:05.059Z,96441.91
2023-04-10T16:58:34.417Z,96445.94
2023-04-10T17:01:13.801Z,96443.09
2023-04-10T17:03:42.121Z,96434.38
2023-04-10T17:06:10.487Z,96431.91
2023-04-10T17:08:38.726Z,96428.44
2023-04-10T17:11:07.300Z,96423.97
2023-04-10T17:13:37.048Z,96419.06
2023-04-10T17:16:05.923Z,96417.19
2023-04-10T17:18:35.631Z,96416.19
2023-04-10T17:21:03.990Z,96416.19
2023-04-10T17:23:32.279Z,96406.75
2023-04-10T17:26:00.691Z,96406.41
2023-04-10T17:28:28.983Z,96400.47
2023-04-10T17:30:57.285Z,96393.19
2023-04-10T17:33:25.594Z,96387.88
2023-04-10T17:35:55.496Z,96394.56
2023-04-10T17:38:23.804Z,96405.72
2023-04-10T17:40:52.051Z,96386.88
2023-04-10T17:43:20.294Z,96382.41
2023-04-10T17:45:48.527Z,96389.06
2023-04-10T17:48:16.922Z,96377.69
2023-04-10T17:50:45.299Z,96378.38
2023-04-10T17:53:14.908Z,96380.94
2023-04-10T17:55:43.190Z,96386.75
2023-04-10T17:58:11.455Z,96381.00
2023-04-10T18:00:41.897Z,96381.94
2023-04-10T18:03:10.406Z,96385.50
2023-04-10T18:05:39.764Z,96385.53
2023-04-10T18:08:08.739Z,96378.53
2023-04-10T18:10:38.450Z,96377.50
2023-04-10T18:13:07.352Z,96379.75
2023-04-10T18:15:35.654Z,96382.22
2023-04-10T18:18:04.097Z,96386.78
2023-04-10T18:20:32.413Z,96381.81
2023-04-10T18:23:03.274Z,96381.22
2023-04-10T18:25:32.632Z,96378.75
2023-04-10T18:28:13.078Z,96375.66
2023-04-10T18:30:42.527Z,96366.19
2023-04-10T18:33:11.416Z,96368.75
2023-04-10T18:35:40.111Z,96362.97
2023-04-10T18:38:08.382Z,96367.72
2023-04-10T18:40:36.907Z,96368.56
2023-04-10T18:43:06.627Z,96371.38
2023-04-10T18:45:35.102Z,96370.19
2023-04-10T18:48:03.472Z,96368.06
2023-04-10T18:50:32.376Z,96365.44
2023-04-10T18:53:00.732Z,96369.31
2023-04-10T18:55:28.971Z,96363.19
2023-04-10T18:57:57.409Z,96371.69
2023-04-10T19:00:27.020Z,96366.25
2023-04-10T19:02:56.357Z,96367.31
2023-04-10T19:05:24.793Z,96371.22
2023-04-10T19:08:02.974Z,96363.28
2023-04-10T19:10:32.312Z,96376.59
2023-04-10T19:13:00.518Z,96374.81
2023-04-10T19:15:30.189Z,96371.66
2023-04-10T19:17:58.555Z,96363.31
2023-04-10T19:20:49.944Z,96364.88
2023-04-10T19:23:15.154Z,96359.50
2023-04-10T19:25:43.700Z,96352.00
2023-04-10T19:28:11.997Z,96349.38
2023-04-10T19:30:41.628Z,96342.22
2023-04-10T19:33:10.046Z,96340.41
2023-04-10T19:35:38.300Z,96331.50
2023-04-10T19:38:06.618Z,96327.59
2023-04-10T19:40:34.866Z,96318.19
2023-04-10T19:43:03.179Z,96314.75
2023-04-10T19:45:32.477Z,96312.66
2023-04-10T19:48:02.157Z,96298.50
2023-04-10T19:50:31.166Z,96294.88
2023-04-10T19:52:59.621Z,96295.59
2023-04-10T19:55:28.107Z,96303.34
2023-04-10T19:57:56.362Z,96306.91
2023-04-10T20:00:24.673Z,96309.56
2023-04-10T20:02:53.172Z,96304.84
2023-04-10T20:05:22.992Z,96306.47
2023-04-10T20:07:51.464Z,96316.56
2023-04-10T20:10:20.618Z,96313.09
2023-04-10T20:12:48.925Z,96306.91
2023-04-10T20:15:17.564Z,96308.72
2023-04-10T20:17:45.796Z,96311.22
2023-04-10T20:20:14.242Z,96298.03
2023-04-10T20:22:43.948Z,96297.00
2023-04-10T20:25:12.215Z,96297.81
2023-04-10T20:27:40.520Z,96302.13
2023-04-10T20:30:09.952Z,96288.75
2023-04-10T20:32:38.796Z,96282.78
2023-04-10T20:35:08.295Z,96284.66
2023-04-10T20:37:36.536Z,96287.94
2023-04-10T20:40:07.628Z,96289.81
2023-04-10T20:42:36.021Z,96288.19
2023-04-10T20:45:04.533Z,96292.72
2023-04-10T20:47:32.786Z,96290.59
2023-04-10T20:50:01.089Z,96295.34
2023-04-10T20:52:29.360Z,96301.91
2023-04-10T20:54:57.585Z,96301.91
2023-04-10T20:57:27.201Z,96309.50
2023-04-10T20:59:55.578Z,96302.66
2023-04-10T21:02:24.045Z,96298.56
2023-04-10T21:04:52.964Z,96282.56
2023-04-10T21:07:21.216Z,96287.91
2023-04-10T21:09:49.496Z,96286.09
2023-04-10T21:12:17.743Z,96284.31
2023-04-10T21:14:48.134Z,96283.78
2023-04-10T21:17:16.680Z,96278.53
2023-04-10T21:19:45.025Z,96284.72
2023-04-10T21:22:13.282Z,96289.25
2023-04-10T21:24:41.575Z,96290.25
2023-04-10T21:27:09.845Z,96292.53
2023-04-10T21:29:38.122Z,96278.28
2023-04-10T21:32:07.976Z,96283.72
2023-04-10T21:34:36.230Z,96279.75
2023-04-10T21:37:04.506Z,96282.22
2023-04-10T21:39:32.769Z,96289.53
2023-04-10T21:42:01.137Z,96295.56
2023-04-10T21:44:29.350Z,96292.56
2023-04-10T21:46:57.640Z,96298.84
2023-04-10T21:49:27.353Z,96294.38
2023-04-10T21:51:55.821Z,96285.34
2023-04-10T21:54:24.068Z,96278.00
2023-04-10T21:56:52.306Z,96271.63
2023-04-10T21:59:20.639Z,96274.69
2023-04-10T22:01:48.966Z,96258.81
2023-04-10T22:04:17.484Z,96255.50
2023-04-10T22:06:47.188Z,96258.03
2023-04-10T22:09:15.503Z,96248.09
2023-04-10T22:11:43.788Z,96249.84
2023-04-10T22:14:17.857Z,96237.16
2023-04-10T22:16:47.786Z,96240.09
2023-04-10T22:19:15.991Z,96238.19
2023-04-10T22:21:44.334Z,96228.88
2023-04-10T22:24:14.057Z,96223.22
2023-04-10T22:26:45.901Z,96235.31
2023-04-10T22:29:14.950Z,96226.47
2023-04-10T22:31:44.141Z,96225.53
2023-04-10T22:34:12.389Z,96228.47
2023-04-10T22:36:41.496Z,96231.91
2023-04-10T22:39:09.968Z,96233.34
2023-04-10T22:41:39.543Z,96230.41
2023-04-10T22:44:08.292Z,96227.47
2023-04-10T22:46:36.748Z,96225.41
2023-04-10T22:49:05.018Z,96223.00
2023-04-10T22:51:33.286Z,96224.50
2023-04-10T22:54:01.684Z,96215.50
2023-04-10T22:56:29.961Z,96205.06
2023-04-10T22:58:59.555Z,96210.84
2023-04-10T23:01:27.906Z,96210.06
2023-04-10T23:03:56.192Z,96204.84
2023-04-10T23:06:24.587Z,96212.94
2023-04-10T23:08:53.056Z,96203.19
2023-04-10T23:11:21.769Z,96193.94
2023-04-10T23:13:50.131Z,96196.72
2023-04-10T23:16:19.774Z,96184.31
2023-04-10T23:18:48.055Z,96186.25
2023-04-10T23:21:16.386Z,96178.34
2023-04-10T23:23:44.639Z,96172.09
2023-04-10T23:26:12.871Z,96163.78
2023-04-10T23:28:41.432Z,96156.34
2023-04-10T23:31:10.230Z,96153.69
2023-04-10T23:33:39.857Z,96149.44
2023-04-10T23:36:08.723Z,96151.91
2023-04-10T23:38:37.051Z,96154.03
2023-04-10T23:41:05.482Z,96158.94
2023-04-10T23:43:34.100Z,96144.41
2023-04-10T23:46:02.435Z,96141.13
2023-04-10T23:48:31.100Z,96143.22
2023-04-10T23:51:08.306Z,96137.66
2023-04-10T23:53:36.693Z,96135.19
2023-04-10T23:56:05.182Z,96130.69
2023-04-10T23:58:33.496Z,96136.66
